createdAt,value
2022-08-11T00:00:34.291Z,65.34
2022-08-11T00:01:34.390Z,65.44
2022-08-11T00:02:34.358Z,65.43
2022-08-11T00:03:43.212Z,65.25
2022-08-11T00:04:35.252Z,65.24
2022-08-11T00:05:34.239Z,65.15
2022-08-11T00:06:34.201Z,65.26
2022-08-11T00:07:34.249Z,65.58
2022-08-11T00:08:34.171Z,65.71
2022-08-11T00:09:39.469Z,65.76
2022-08-11T00:10:35.171Z,65.82
2022-08-11T00:11:35.361Z,65.71
2022-08-11T00:12:34.239Z,65.79
2022-08-11T00:13:34.192Z,65.65
2022-08-11T00:14:36.777Z,65.53
2022-08-11T00:15:34.080Z,65.47
2022-08-11T00:16:34.182Z,65.82
2022-08-11T00:17:34.071Z,66.09
2022-08-11T00:18:34.123Z,66.14
2022-08-11T00:20:12.477Z,66.15
2022-08-11T00:20:35.016Z,66.03
2022-08-11T00:22:03.812Z,65.97
2022-08-11T00:22:35.004Z,66.42
2022-08-11T00:23:33.975Z,66.52
2022-08-11T00:24:52.079Z,66.58
2022-08-11T00:25:34.944Z,66.49
2022-08-11T00:26:34.083Z,66.87
2022-08-11T00:27:33.954Z,66.96
2022-08-11T00:28:34.014Z,67.11
2022-08-11T00:29:33.893Z,67.12
2022-08-11T00:30:33.903Z,67.14
2022-08-11T00:31:33.866Z,67.27
2022-08-11T00:32:35.014Z,67.38
2022-08-11T00:33:41.359Z,67.57
2022-08-11T00:34:34.824Z,67.36
2022-08-11T00:36:43.276Z,67.38
2022-08-11T00:37:43.053Z,67.39
2022-08-11T00:38:43.132Z,67.57
2022-08-11T00:39:43.081Z,67.45
2022-08-11T00:40:43.142Z,67.62
2022-08-11T00:41:43.009Z,67.50
2022-08-11T00:42:43.073Z,67.45
2022-08-11T00:43:43.037Z,67.44
2022-08-11T00:44:43.164Z,67.33
2022-08-11T00:45:42.943Z,67.62
2022-08-11T00:46:43.044Z,67.80
2022-08-11T00:47:42.923Z,67.54
2022-08-11T00:48:42.974Z,67.58
2022-08-11T00:49:42.903Z,67.75
2022-08-11T00:50:43.064Z,68.18
2022-08-11T00:52:02.376Z,68.20
2022-08-11T00:52:43.857Z,68.08
2022-08-11T00:53:42.883Z,68.33
2022-08-11T00:54:42.823Z,68.53
2022-08-11T00:55:42.950Z,68.49
2022-08-11T00:56:42.824Z,68.22
2022-08-11T00:57:43.904Z,67.87
2022-08-11T00:58:42.775Z,68.12
2022-08-11T00:59:42.925Z,68.42
2022-08-11T01:00:42.801Z,68.48
2022-08-11T01:01:42.854Z,68.42
2022-08-11T01:02:42.747Z,68.71
2022-08-11T01:04:05.865Z,68.66
2022-08-11T01:04:42.695Z,68.93
2022-08-11T01:05:42.835Z,68.68
2022-08-11T01:06:42.665Z,68.76
2022-08-11T01:08:01.359Z,68.58
2022-08-11T01:08:43.656Z,68.83
2022-08-11T01:09:42.687Z,68.55
2022-08-11T01:10:42.608Z,68.50
2022-08-11T01:11:55.132Z,68.57
2022-08-11T01:12:43.585Z,68.90
2022-08-11T01:13:42.616Z,68.90
2022-08-11T01:14:42.607Z,69.14
2022-08-11T01:15:43.655Z,69.28
2022-08-11T01:16:43.527Z,69.42
2022-08-11T01:17:42.656Z,69.52
2022-08-11T01:18:42.498Z,69.70
2022-08-11T01:20:45.207Z,69.84
2022-08-11T01:20:46.881Z,69.86
2022-08-11T01:21:43.466Z,69.85
2022-08-11T01:22:44.675Z,69.89
2022-08-11T01:23:42.436Z,70.01
2022-08-11T01:24:42.506Z,69.96
2022-08-11T01:25:57.259Z,70.03
2022-08-11T01:26:43.427Z,70.04
2022-08-11T01:27:44.615Z,69.75
2022-08-11T01:28:42.366Z,70.00
2022-08-11T01:29:42.450Z,69.85
2022-08-11T01:30:43.338Z,69.96
2022-08-11T01:31:42.486Z,69.84
2022-08-11T01:32:42.338Z,69.85
2022-08-11T01:33:42.349Z,69.81
2022-08-11T01:34:42.289Z,69.73
2022-08-11T01:35:42.368Z,69.77
2022-08-11T01:36:42.260Z,69.76
2022-08-11T01:37:42.288Z,70.01
2022-08-11T01:38:42.264Z,70.00
2022-08-11T01:39:43.377Z,70.03
2022-08-11T01:40:42.198Z,70.03
2022-08-11T01:41:42.357Z,70.08
2022-08-11T01:42:42.177Z,70.10
2022-08-11T01:43:43.368Z,70.07
2022-08-11T01:44:42.146Z,70.07
2022-08-11T01:45:43.246Z,70.14
2022-08-11T01:46:42.127Z,70.10
2022-08-11T01:47:53.346Z,70.07
2022-08-11T01:48:43.095Z,70.15
2022-08-11T01:50:07.639Z,70.10
2022-08-11T01:51:06.266Z,70.02
2022-08-11T01:51:45.213Z,69.95
2022-08-11T01:52:42.327Z,69.82
2022-08-11T01:53:42.027Z,70.01
2022-08-11T01:54:42.137Z,69.91
2022-08-11T01:55:42.017Z,69.99
2022-08-11T01:56:42.077Z,70.11
2022-08-11T01:57:41.967Z,70.11
2022-08-11T01:58:44.203Z,70.17
2022-08-11T01:59:41.948Z,70.20
2022-08-11T02:01:03.231Z,70.19
2022-08-11T02:01:41.918Z,70.05
2022-08-11T02:02:41.981Z,70.02
2022-08-11T02:03:41.897Z,70.24
2022-08-11T02:04:42.015Z,70.32
2022-08-11T02:05:41.867Z,70.42
2022-08-11T02:06:45.178Z,70.36
2022-08-11T02:07:41.837Z,70.23
2022-08-11T02:08:44.839Z,70.39
2022-08-11T02:09:49.538Z,70.33
2022-08-11T02:10:42.798Z,70.25
2022-08-11T02:11:42.801Z,70.31
2022-08-11T02:12:44.414Z,70.12
2022-08-11T02:13:44.672Z,70.11
2022-08-11T02:14:41.740Z,70.47
2022-08-11T02:15:42.730Z,70.63
2022-08-11T02:16:41.836Z,70.61
2022-08-11T02:17:41.744Z,70.70
2022-08-11T02:18:41.767Z,70.67
2022-08-11T02:19:41.687Z,70.79
2022-08-11T02:20:41.672Z,70.62
2022-08-11T02:21:41.773Z,70.39
2022-08-11T02:22:41.641Z,70.44
2022-08-11T02:24:05.449Z,70.51
2022-08-11T02:25:04.690Z,70.53
2022-08-11T02:25:41.599Z,70.54
2022-08-11T02:26:41.725Z,70.54
2022-08-11T02:27:41.581Z,70.35
2022-08-11T02:28:46.659Z,70.69
2022-08-11T02:29:42.572Z,70.76
2022-08-11T02:30:41.671Z,70.65
2022-08-11T02:32:23.955Z,70.69
2022-08-11T02:32:42.700Z,70.76
2022-08-11T02:33:41.510Z,70.72
2022-08-11T02:34:41.709Z,70.61
2022-08-11T02:35:41.473Z,70.80
2022-08-11T02:36:41.696Z,70.98
2022-08-11T02:37:41.453Z,70.96
2022-08-11T02:38:42.548Z,71.03
2022-08-11T02:39:41.484Z,71.24
2022-08-11T02:40:41.501Z,71.02
2022-08-11T02:41:41.403Z,71.00
2022-08-11T02:42:41.423Z,71.04
2022-08-11T02:43:41.372Z,71.11
2022-08-11T02:44:42.363Z,71.29
2022-08-11T02:46:02.433Z,71.49
2022-08-11T02:46:41.333Z,71.35
2022-08-11T02:47:41.321Z,71.38
2022-08-11T02:48:41.402Z,71.40
2022-08-11T02:49:41.292Z,71.64
2022-08-11T02:50:41.433Z,71.68
2022-08-11T02:51:41.300Z,71.43
2022-08-11T02:52:41.362Z,71.71
2022-08-11T02:53:41.251Z,71.61
2022-08-11T02:54:43.512Z,71.38
2022-08-11T02:55:48.613Z,71.55
2022-08-11T02:56:42.235Z,71.68
2022-08-11T02:57:41.303Z,71.47
2022-08-11T02:58:41.183Z,71.32
2022-08-11T02:59:42.363Z,71.44
2022-08-11T03:00:41.171Z,71.54
2022-08-11T03:01:41.391Z,71.48
2022-08-11T03:02:41.174Z,71.81
2022-08-11T03:03:41.221Z,71.70
2022-08-11T03:04:41.134Z,71.63
2022-08-11T03:06:02.224Z,71.57
2022-08-11T03:06:41.082Z,71.54
2022-08-11T03:07:41.215Z,71.62
2022-08-11T03:08:41.063Z,71.50
2022-08-11T03:09:41.153Z,71.67
2022-08-11T03:10:41.034Z,71.73
2022-08-11T03:11:42.073Z,71.73
2022-08-11T03:12:40.994Z,71.24
2022-08-11T03:13:41.140Z,71.22
2022-08-11T03:14:40.994Z,71.13
2022-08-11T03:15:41.147Z,70.83
2022-08-11T03:16:40.951Z,71.13
2022-08-11T03:17:41.084Z,71.07
2022-08-11T03:18:40.930Z,71.00
2022-08-11T03:19:40.986Z,71.14
2022-08-11T03:20:40.936Z,71.03
2022-08-11T03:22:02.921Z,71.33
2022-08-11T03:22:41.866Z,71.28
2022-08-11T03:23:40.967Z,71.54
2022-08-11T03:24:40.848Z,71.56
2022-08-11T03:25:41.005Z,71.50
2022-08-11T03:26:40.845Z,71.56
2022-08-11T03:27:40.935Z,71.50
2022-08-11T03:28:40.784Z,71.46
2022-08-11T03:29:40.862Z,71.54
2022-08-11T03:30:40.758Z,71.59
2022-08-11T03:31:40.915Z,71.72
2022-08-11T03:32:40.765Z,71.92
2022-08-11T03:33:42.936Z,71.93
2022-08-11T03:34:40.705Z,72.00
2022-08-11T03:35:40.875Z,71.75
2022-08-11T03:37:15.203Z,71.54
2022-08-11T03:37:41.705Z,71.46
2022-08-11T03:38:40.655Z,71.41
2022-08-11T03:39:40.795Z,71.24
2022-08-11T03:40:41.638Z,71.40
2022-08-11T03:42:03.715Z,71.46
2022-08-11T03:42:41.607Z,71.19
2022-08-11T03:43:50.164Z,71.12
2022-08-11T03:44:41.575Z,71.23
2022-08-11T03:45:42.747Z,71.46
2022-08-11T03:46:40.555Z,71.50
2022-08-11T03:47:40.586Z,71.60
2022-08-11T03:48:41.548Z,71.69
2022-08-11T03:50:54.827Z,71.73
2022-08-11T03:51:51.734Z,71.75
2022-08-11T03:52:49.936Z,71.70
2022-08-11T03:53:49.893Z,71.77
2022-08-11T03:54:50.993Z,72.10
2022-08-11T03:55:49.844Z,72.18
2022-08-11T03:56:50.013Z,72.33
2022-08-11T03:57:49.804Z,72.67
2022-08-11T03:58:49.955Z,72.82
2022-08-11T03:59:49.795Z,72.93
2022-08-11T04:00:49.985Z,73.01
2022-08-11T04:01:49.842Z,73.06
2022-08-11T04:02:49.805Z,73.20
2022-08-11T04:03:49.726Z,73.20
2022-08-11T04:04:50.678Z,73.25
2022-08-11T04:05:49.705Z,73.25
2022-08-11T04:06:49.789Z,73.46
2022-08-11T04:07:49.686Z,73.33
2022-08-11T04:08:49.728Z,73.55
2022-08-11T04:09:49.657Z,73.48
2022-08-11T04:10:49.708Z,73.50
2022-08-11T04:11:49.625Z,73.44
2022-08-11T04:12:49.917Z,73.43
2022-08-11T04:13:49.601Z,73.71
2022-08-11T04:14:52.207Z,73.73
2022-08-11T04:15:49.575Z,73.74
2022-08-11T04:16:49.717Z,73.82
2022-08-11T04:17:49.548Z,73.75
2022-08-11T04:18:49.695Z,73.97
2022-08-11T04:19:49.516Z,73.74
2022-08-11T04:20:49.633Z,73.82
2022-08-11T04:21:49.495Z,73.72
2022-08-11T04:22:49.625Z,73.85
2022-08-11T04:24:35.745Z,73.99
2022-08-11T04:24:50.779Z,73.83
2022-08-11T04:25:57.457Z,73.59
2022-08-11T04:26:50.428Z,73.59
2022-08-11T04:27:49.506Z,73.59
2022-08-11T04:28:50.264Z,73.79
2022-08-11T04:30:03.667Z,73.96
2022-08-11T04:30:50.377Z,74.03
2022-08-11T04:31:52.815Z,74.09
2022-08-11T04:32:49.347Z,74.07
2022-08-11T04:33:49.407Z,74.13
2022-08-11T04:34:49.339Z,74.19
2022-08-11T04:35:51.324Z,74.12
2022-08-11T04:36:49.296Z,73.96
2022-08-11T04:37:53.410Z,74.07
2022-08-11T04:38:49.278Z,73.95
2022-08-11T04:39:49.520Z,73.67
2022-08-11T04:40:49.268Z,73.97
2022-08-11T04:41:49.355Z,73.77
2022-08-11T04:42:49.218Z,73.74
2022-08-11T04:44:02.684Z,73.85
2022-08-11T04:44:50.188Z,74.25
2022-08-11T04:45:50.240Z,74.00
2022-08-11T04:46:49.182Z,73.96
2022-08-11T04:48:03.990Z,73.80
2022-08-11T04:48:50.144Z,73.79
2022-08-11T04:49:51.289Z,73.75
2022-08-11T04:51:00.673Z,73.70
2022-08-11T04:51:50.119Z,73.85
2022-08-11T04:52:49.189Z,73.69
2022-08-11T04:53:52.439Z,73.61
2022-08-11T04:54:50.263Z,73.66
2022-08-11T04:55:49.041Z,73.70
2022-08-11T04:56:49.071Z,73.76
2022-08-11T04:57:49.037Z,73.75
2022-08-11T04:58:49.107Z,73.79
2022-08-11T04:59:48.987Z,73.80
2022-08-11T05:00:50.058Z,73.76
2022-08-11T05:01:49.027Z,73.81
2022-08-11T05:02:49.067Z,73.81
2022-08-11T05:03:48.948Z,73.72
2022-08-11T05:04:49.007Z,73.72
2022-08-11T05:05:56.372Z,73.72
2022-08-11T05:06:49.890Z,73.64
2022-08-11T05:07:49.009Z,73.61
2022-08-11T05:08:48.869Z,73.44
2022-08-11T05:09:49.019Z,73.43
2022-08-11T05:10:48.848Z,73.32
2022-08-11T05:11:49.912Z,73.40
2022-08-11T05:12:48.818Z,73.53
2022-08-11T05:13:48.925Z,73.60
2022-08-11T05:14:48.793Z,73.81
2022-08-11T05:15:51.556Z,73.49
2022-08-11T05:16:48.759Z,73.70
2022-08-11T05:18:09.862Z,73.45
2022-08-11T05:18:48.739Z,73.65
2022-08-11T05:19:48.821Z,73.42
2022-08-11T05:20:48.710Z,73.58
2022-08-11T05:21:50.860Z,73.46
2022-08-11T05:22:48.681Z,73.45
2022-08-11T05:23:48.798Z,73.53
2022-08-11T05:24:48.659Z,73.29
2022-08-11T05:26:43.530Z,73.37
2022-08-11T05:26:50.014Z,73.37
2022-08-11T05:27:48.822Z,73.53
2022-08-11T05:28:48.601Z,73.62
2022-08-11T05:29:48.700Z,73.55
2022-08-11T05:30:48.582Z,73.51
2022-08-11T05:31:48.630Z,73.49
2022-08-11T05:32:48.552Z,73.57
2022-08-11T05:33:51.900Z,73.46
2022-08-11T05:34:48.520Z,73.19
2022-08-11T05:36:00.782Z,73.47
2022-08-11T05:36:49.499Z,73.45
2022-08-11T05:37:49.669Z,73.55
2022-08-11T05:38:48.470Z,73.76
2022-08-11T05:39:51.839Z,73.55
2022-08-11T05:40:51.255Z,70.51
2022-08-11T05:41:49.438Z,72.24
2022-08-11T05:42:48.483Z,72.78
2022-08-11T05:44:19.737Z,69.68
2022-08-11T05:44:49.420Z,70.32
2022-08-11T05:45:58.679Z,69.69
2022-08-11T05:46:49.370Z,71.89
2022-08-11T05:47:48.413Z,70.72
2022-08-11T05:48:48.351Z,71.39
2022-08-11T05:49:48.454Z,71.52
2022-08-11T05:50:48.341Z,68.91
2022-08-11T05:51:53.640Z,68.85
2022-08-11T05:52:55.422Z,67.86
2022-08-11T05:53:49.282Z,67.14
2022-08-11T05:54:48.476Z,67.59
2022-08-11T05:56:02.401Z,69.59
2022-08-11T05:56:49.262Z,68.29
2022-08-11T05:58:57.699Z,70.06
2022-08-11T05:59:57.567Z,70.06
2022-08-11T06:00:57.608Z,66.23
2022-08-11T06:01:57.585Z,65.43
2022-08-11T06:02:57.625Z,64.73
2022-08-11T06:03:57.938Z,65.69
2022-08-11T06:04:57.536Z,65.27
2022-08-11T06:05:57.486Z,65.58
2022-08-11T06:06:57.547Z,64.50
2022-08-11T06:07:57.600Z,63.61
2022-08-11T06:08:57.457Z,63.60
2022-08-11T06:09:57.434Z,63.24
2022-08-11T06:10:57.476Z,63.40
2022-08-11T06:11:57.408Z,63.53
2022-08-11T06:12:57.487Z,63.49
2022-08-11T06:13:57.398Z,63.54
2022-08-11T06:14:57.404Z,64.31
2022-08-11T06:15:57.352Z,62.61
2022-08-11T06:16:58.440Z,61.74
2022-08-11T06:17:57.322Z,61.69
2022-08-11T06:18:57.430Z,61.81
2022-08-11T06:19:57.308Z,62.50
2022-08-11T06:20:58.299Z,61.47
2022-08-11T06:21:57.353Z,61.19
2022-08-11T06:22:57.253Z,62.05
2022-08-11T06:23:57.266Z,62.12
2022-08-11T06:24:57.241Z,62.50
2022-08-11T06:25:58.259Z,62.54
2022-08-11T06:27:13.655Z,62.11
2022-08-11T06:27:58.191Z,60.67
2022-08-11T06:28:57.299Z,60.78
2022-08-11T06:29:57.180Z,60.93
2022-08-11T06:30:57.220Z,60.44
2022-08-11T06:31:57.172Z,61.08
2022-08-11T06:32:57.229Z,60.06
2022-08-11T06:33:57.120Z,60.20
2022-08-11T06:34:57.207Z,60.77
2022-08-11T06:35:57.089Z,60.38
2022-08-11T06:36:57.246Z,60.39
2022-08-11T06:37:59.002Z,60.29
2022-08-11T06:38:57.084Z,59.95
2022-08-11T06:39:57.144Z,59.27
2022-08-11T06:40:57.100Z,59.52
2022-08-11T06:41:56.989Z,59.49
2022-08-11T06:42:57.170Z,59.73
2022-08-11T06:43:58.953Z,59.21
2022-08-11T06:44:56.959Z,59.20
2022-08-11T06:45:57.076Z,58.95
2022-08-11T06:46:56.930Z,59.65
2022-08-11T06:47:57.089Z,59.08
2022-08-11T06:48:56.903Z,59.22
2022-08-11T06:49:57.094Z,59.81
2022-08-11T06:50:56.891Z,60.05
2022-08-11T06:51:56.966Z,60.50
2022-08-11T06:52:56.856Z,59.27
2022-08-11T06:54:17.871Z,58.65
2022-08-11T06:54:56.829Z,58.88
2022-08-11T06:55:59.047Z,58.88
2022-08-11T06:57:26.496Z,58.10
2022-08-11T06:57:57.835Z,58.37
2022-08-11T06:58:56.774Z,58.62
2022-08-11T06:59:56.903Z,60.60
2022-08-11T07:00:56.771Z,60.06
2022-08-11T07:01:56.868Z,58.35
2022-08-11T07:02:56.712Z,57.88
2022-08-11T07:03:57.763Z,58.00
2022-08-11T07:04:56.685Z,58.15
2022-08-11T07:05:56.749Z,58.90
2022-08-11T07:06:56.681Z,59.29
2022-08-11T07:07:57.691Z,58.30
2022-08-11T07:08:57.635Z,58.20
2022-08-11T07:09:56.783Z,58.59
2022-08-11T07:10:56.603Z,58.37
2022-08-11T07:11:56.694Z,58.50
2022-08-11T07:12:56.594Z,59.04
2022-08-11T07:13:57.627Z,59.52
2022-08-11T07:15:00.586Z,59.34
2022-08-11T07:16:11.180Z,58.99
2022-08-11T07:16:57.523Z,57.93
2022-08-11T07:17:56.515Z,57.06
2022-08-11T07:18:56.624Z,56.97
2022-08-11T07:19:56.935Z,56.93
2022-08-11T07:21:01.785Z,57.35
2022-08-11T07:22:02.244Z,56.98
2022-08-11T07:22:57.443Z,57.01
2022-08-11T07:23:56.524Z,56.47
2022-08-11T07:24:59.239Z,56.52
2022-08-11T07:25:57.405Z,57.77
2022-08-11T07:26:56.523Z,56.53
2022-08-11T07:27:56.374Z,56.59
2022-08-11T07:28:56.467Z,57.18
2022-08-11T07:29:56.345Z,56.21
2022-08-11T07:30:56.383Z,56.45
2022-08-11T07:31:56.323Z,55.77
2022-08-11T07:32:56.443Z,56.48
2022-08-11T07:34:07.748Z,56.25
2022-08-11T07:34:57.293Z,56.22
2022-08-11T07:35:57.332Z,56.64
2022-08-11T07:36:56.261Z,56.10
2022-08-11T07:38:02.120Z,56.03
2022-08-11T07:38:57.229Z,55.69
2022-08-11T07:39:56.330Z,55.38
2022-08-11T07:40:56.225Z,55.90
2022-08-11T07:41:56.337Z,55.86
2022-08-11T07:42:56.178Z,55.76
2022-08-11T07:43:56.275Z,54.95
2022-08-11T07:44:56.150Z,54.79
2022-08-11T07:45:56.349Z,55.23
2022-08-11T07:46:56.147Z,55.95
2022-08-11T07:47:56.252Z,54.94
2022-08-11T07:48:56.096Z,54.46
2022-08-11T07:49:57.229Z,54.19
2022-08-11T07:50:56.353Z,54.15
2022-08-11T07:51:56.220Z,54.74
2022-08-11T07:52:56.066Z,54.17
2022-08-11T07:53:58.592Z,54.00
2022-08-11T07:54:57.012Z,54.31
2022-08-11T07:55:58.088Z,53.43
2022-08-11T07:57:09.464Z,53.35
2022-08-11T07:58:15.467Z,53.57
2022-08-11T07:59:03.393Z,53.71
2022-08-11T08:00:03.935Z,53.23
2022-08-11T08:00:59.194Z,53.62
2022-08-11T08:01:55.957Z,53.74
2022-08-11T08:02:55.958Z,53.65
2022-08-11T08:03:55.914Z,53.69
2022-08-11T08:04:55.998Z,53.76
2022-08-11T08:05:55.869Z,53.80
2022-08-11T08:06:56.950Z,53.73
2022-08-11T08:07:55.842Z,50.21
2022-08-11T08:08:55.983Z,50.05
2022-08-11T08:09:55.851Z,51.18
2022-08-11T08:10:55.901Z,51.33
2022-08-11T08:11:55.780Z,50.90
2022-08-11T08:12:55.831Z,51.91
2022-08-11T08:13:55.751Z,52.23
2022-08-11T08:14:55.873Z,52.11
2022-08-11T08:15:55.852Z,51.61
2022-08-11T08:16:56.831Z,51.27
2022-08-11T08:18:09.799Z,52.02
2022-08-11T08:18:56.693Z,51.56
2022-08-11T08:19:55.811Z,52.28
2022-08-11T08:20:55.699Z,52.60
2022-08-11T08:21:55.802Z,51.21
2022-08-11T08:24:06.119Z,49.47
2022-08-11T08:25:05.910Z,49.46
2022-08-11T08:26:05.969Z,49.90
2022-08-11T08:27:06.909Z,49.75
2022-08-11T08:28:07.979Z,49.30
2022-08-11T08:29:05.859Z,49.79
2022-08-11T08:30:06.037Z,50.05
2022-08-11T08:31:05.830Z,50.12
2022-08-11T08:32:06.978Z,49.54
2022-08-11T08:33:05.833Z,49.56
2022-08-11T08:34:06.910Z,49.70
2022-08-11T08:35:05.781Z,49.67
2022-08-11T08:36:05.830Z,49.81
2022-08-11T08:37:16.080Z,49.89
2022-08-11T08:38:06.760Z,49.97
2022-08-11T08:39:05.732Z,50.07
2022-08-11T08:40:05.838Z,48.47
2022-08-11T08:41:05.705Z,49.91
2022-08-11T08:42:05.831Z,49.75
2022-08-11T08:43:05.673Z,49.44
2022-08-11T08:44:37.881Z,48.13
2022-08-11T08:45:27.740Z,49.03
2022-08-11T08:46:05.643Z,47.74
2022-08-11T08:47:05.779Z,48.61
2022-08-11T08:48:05.767Z,48.52
2022-08-11T08:49:05.701Z,47.78
2022-08-11T08:50:05.611Z,48.64
2022-08-11T08:51:08.100Z,47.67
2022-08-11T08:52:30.664Z,48.06
2022-08-11T08:53:06.553Z,48.65
2022-08-11T08:54:05.640Z,49.37
2022-08-11T08:55:05.530Z,50.34
2022-08-11T08:56:05.635Z,49.62
2022-08-11T08:57:05.527Z,48.23
2022-08-11T08:58:05.611Z,49.28
2022-08-11T08:59:05.491Z,49.13
2022-08-11T09:00:05.652Z,49.71
2022-08-11T09:01:05.477Z,48.82
2022-08-11T09:02:09.842Z,49.12
2022-08-11T09:03:29.555Z,48.92
2022-08-11T09:04:11.397Z,47.37
2022-08-11T09:05:06.394Z,46.22
2022-08-11T09:06:05.457Z,47.15
2022-08-11T09:07:05.366Z,46.38
2022-08-11T09:08:05.544Z,46.57
2022-08-11T09:09:05.335Z,46.86
2022-08-11T09:10:05.425Z,47.09
2022-08-11T09:11:06.746Z,47.44
2022-08-11T09:12:06.379Z,47.52
2022-08-11T09:13:05.277Z,46.82
2022-08-11T09:14:08.385Z,46.58
2022-08-11T09:15:06.259Z,47.81
2022-08-11T09:16:05.336Z,47.86
2022-08-11T09:17:05.228Z,48.29
2022-08-11T09:18:05.363Z,47.84
2022-08-11T09:19:05.245Z,47.58
2022-08-11T09:20:06.326Z,47.88
2022-08-11T09:21:05.187Z,47.82
2022-08-11T09:22:05.236Z,47.95
2022-08-11T09:24:08.368Z,46.90
2022-08-11T09:25:05.125Z,47.38
2022-08-11T09:26:05.220Z,45.76
2022-08-11T09:27:05.087Z,45.44
2022-08-11T09:28:05.166Z,46.22
2022-08-11T09:29:05.062Z,47.03
2022-08-11T09:30:05.137Z,47.73
2022-08-11T09:31:05.039Z,48.10
2022-08-11T09:32:05.109Z,49.48
2022-08-11T09:33:05.012Z,49.57
2022-08-11T09:34:05.160Z,49.24
2022-08-11T09:35:04.980Z,49.33
2022-08-11T09:36:05.160Z,47.40
2022-08-11T09:37:04.951Z,49.01
2022-08-11T09:38:05.030Z,46.04
2022-08-11T09:39:04.933Z,45.49
2022-08-11T09:40:04.940Z,45.44
2022-08-11T09:41:04.902Z,43.79
2022-08-11T09:42:05.975Z,42.91
2022-08-11T09:43:05.881Z,43.05
2022-08-11T09:44:05.041Z,43.09
2022-08-11T09:45:04.851Z,43.87
2022-08-11T09:46:04.960Z,44.32
2022-08-11T09:47:04.822Z,46.30
2022-08-11T09:48:05.063Z,46.35
2022-08-11T09:49:04.801Z,44.22
2022-08-11T09:50:04.815Z,42.72
2022-08-11T09:51:04.780Z,43.83
2022-08-11T09:52:05.363Z,44.45
2022-08-11T09:53:36.611Z,47.17
2022-08-11T09:54:05.753Z,46.51
2022-08-11T09:55:04.723Z,46.98
2022-08-11T09:56:04.844Z,45.74
2022-08-11T09:57:05.499Z,46.01
2022-08-11T09:58:04.773Z,44.85
2022-08-11T09:59:04.666Z,43.92
2022-08-11T10:00:09.489Z,44.70
2022-08-11T10:01:05.695Z,45.07
2022-08-11T10:02:04.744Z,45.22
2022-08-11T10:03:04.622Z,43.66
2022-08-11T10:04:04.887Z,44.42
2022-08-11T10:05:04.583Z,45.38
2022-08-11T10:06:08.045Z,46.55
2022-08-11T10:07:05.235Z,46.78
2022-08-11T10:08:04.665Z,47.45
2022-08-11T10:09:04.534Z,44.62
2022-08-11T10:10:04.587Z,44.66
2022-08-11T10:11:04.517Z,45.29
2022-08-11T10:12:05.637Z,46.32
2022-08-11T10:13:04.491Z,47.13
2022-08-11T10:14:33.270Z,46.11
2022-08-11T10:15:05.457Z,45.51
2022-08-11T10:16:15.342Z,45.03
2022-08-11T10:17:05.436Z,43.50
2022-08-11T10:18:06.496Z,42.60
2022-08-11T10:19:04.406Z,43.30
2022-08-11T10:20:06.058Z,44.04
2022-08-11T10:21:04.377Z,43.57
2022-08-11T10:22:04.496Z,43.26
2022-08-11T10:23:04.355Z,42.60
2022-08-11T10:24:08.589Z,40.29
2022-08-11T10:25:04.338Z,39.90
2022-08-11T10:26:04.368Z,40.05
2022-08-11T10:27:04.307Z,40.35
2022-08-11T10:28:28.865Z,43.22
2022-08-11T10:29:13.244Z,41.71
2022-08-11T10:30:05.267Z,40.67
2022-08-11T10:31:04.298Z,40.39
2022-08-11T10:32:04.582Z,41.10
2022-08-11T10:33:04.347Z,42.26
2022-08-11T10:34:04.219Z,42.48
2022-08-11T10:35:05.353Z,42.13
2022-08-11T10:36:04.180Z,41.92
2022-08-11T10:37:05.180Z,42.22
2022-08-11T10:38:07.949Z,39.88
2022-08-11T10:39:05.154Z,41.08
2022-08-11T10:40:04.211Z,40.47
2022-08-11T10:41:04.190Z,40.75
2022-08-11T10:42:08.815Z,43.15
2022-08-11T10:43:05.090Z,41.04
2022-08-11T10:44:04.320Z,40.23
2022-08-11T10:45:04.079Z,41.72
2022-08-11T10:46:05.151Z,42.36
2022-08-11T10:47:04.060Z,43.08
2022-08-11T10:48:04.172Z,44.37
2022-08-11T10:49:04.032Z,44.16
2022-08-11T10:50:05.232Z,44.30
2022-08-11T10:51:03.995Z,41.46
2022-08-11T10:52:04.129Z,42.41
2022-08-11T10:53:03.989Z,45.36
2022-08-11T10:54:04.060Z,45.31
2022-08-11T10:55:03.943Z,45.21
2022-08-11T10:57:03.930Z,45.16
2022-08-11T10:58:05.665Z,44.37
2022-08-11T10:59:04.163Z,46.27
2022-08-11T11:00:03.963Z,46.39
2022-08-11T11:01:03.961Z,46.40
2022-08-11T11:02:04.010Z,46.00
2022-08-11T11:03:22.241Z,43.82
2022-08-11T11:04:04.845Z,44.06
2022-08-11T11:05:04.023Z,41.54
2022-08-11T11:06:12.864Z,43.16
2022-08-11T11:07:04.773Z,45.71
2022-08-11T11:08:03.908Z,39.59
2022-08-11T11:09:04.719Z,38.38
2022-08-11T11:10:03.904Z,37.54
2022-08-11T11:11:03.723Z,38.23
2022-08-11T11:12:03.775Z,37.08
2022-08-11T11:13:03.707Z,34.98
2022-08-11T11:14:03.826Z,34.98
2022-08-11T11:15:03.678Z,35.75
2022-08-11T11:16:03.807Z,34.38
2022-08-11T11:17:03.656Z,34.78
2022-08-11T11:18:04.830Z,35.43
2022-08-11T11:19:03.622Z,35.08
2022-08-11T11:20:03.825Z,35.22
2022-08-11T11:21:03.596Z,35.73
2022-08-11T11:22:03.724Z,35.58
2022-08-11T11:23:03.567Z,36.34
2022-08-11T11:24:03.686Z,36.33
2022-08-11T11:25:03.548Z,36.39
2022-08-11T11:26:03.626Z,36.34
2022-08-11T11:27:03.519Z,36.94
2022-08-11T11:28:05.658Z,35.26
2022-08-11T11:29:03.488Z,34.90
2022-08-11T11:30:03.700Z,34.80
2022-08-11T11:31:03.478Z,36.70
2022-08-11T11:32:03.528Z,39.28
2022-08-11T11:33:03.442Z,40.60
2022-08-11T11:34:06.463Z,36.53
2022-08-11T11:35:04.411Z,37.57
2022-08-11T11:36:03.510Z,36.82
2022-08-11T11:37:03.390Z,35.15
2022-08-11T11:38:05.616Z,35.29
2022-08-11T11:39:03.368Z,36.50
2022-08-11T11:40:03.422Z,38.27
2022-08-11T11:41:03.340Z,35.51
2022-08-11T11:42:03.404Z,36.88
2022-08-11T11:43:03.310Z,38.52
2022-08-11T11:44:03.441Z,40.31
2022-08-11T11:45:03.289Z,42.45
2022-08-11T11:46:03.431Z,36.03
2022-08-11T11:47:03.254Z,38.53
2022-08-11T11:48:03.410Z,36.14
2022-08-11T11:49:03.242Z,34.09
2022-08-11T11:50:04.232Z,33.51
2022-08-11T11:51:24.341Z,34.15
2022-08-11T11:52:03.203Z,35.12
2022-08-11T11:53:03.354Z,33.46
2022-08-11T11:54:03.163Z,33.29
2022-08-11T11:55:03.283Z,33.19
2022-08-11T11:56:03.140Z,33.01
2022-08-11T11:57:03.280Z,34.56
2022-08-11T11:58:03.113Z,34.65
2022-08-11T11:59:03.254Z,37.47
2022-08-11T12:00:03.096Z,41.18
2022-08-11T12:01:03.210Z,41.90
2022-08-11T12:02:11.811Z,34.72
2022-08-11T12:03:04.139Z,40.64
2022-08-11T12:04:03.193Z,41.88
2022-08-11T12:05:03.026Z,39.84
2022-08-11T12:06:03.132Z,41.11
2022-08-11T12:07:03.004Z,41.17
2022-08-11T12:08:05.220Z,39.29
2022-08-11T12:09:04.009Z,33.67
2022-08-11T12:10:03.105Z,36.66
2022-08-11T12:11:02.955Z,38.71
2022-08-11T12:12:04.056Z,34.61
2022-08-11T12:13:02.915Z,32.34
2022-08-11T12:14:24.105Z,32.72
2022-08-11T12:15:02.990Z,34.93
2022-08-11T12:16:32.041Z,34.23
2022-08-11T12:17:03.859Z,34.14
2022-08-11T12:19:35.777Z,33.01
2022-08-11T12:20:31.739Z,32.99
2022-08-11T12:21:13.387Z,32.44
2022-08-11T12:22:12.182Z,31.67
2022-08-11T12:23:14.147Z,32.12
2022-08-11T12:24:12.163Z,31.61
2022-08-11T12:25:12.233Z,31.74
2022-08-11T12:26:27.728Z,32.61
2022-08-11T12:27:15.634Z,32.20
2022-08-11T12:28:12.111Z,33.19
2022-08-11T12:29:12.300Z,35.28
2022-08-11T12:30:12.084Z,36.17
2022-08-11T12:31:12.185Z,33.57
2022-08-11T12:32:12.054Z,33.44
2022-08-11T12:33:12.174Z,35.98
2022-08-11T12:34:12.036Z,30.28
2022-08-11T12:35:12.105Z,31.15
2022-08-11T12:36:12.007Z,31.31
2022-08-11T12:37:13.291Z,31.20
2022-08-11T12:38:12.821Z,31.97
2022-08-11T12:39:23.011Z,32.71
2022-08-11T12:40:43.206Z,29.42
2022-08-11T12:41:14.976Z,30.03
2022-08-11T12:42:11.927Z,30.78
2022-08-11T12:43:21.645Z,30.61
2022-08-11T12:44:12.919Z,29.98
2022-08-11T12:45:22.214Z,29.89
2022-08-11T12:46:12.879Z,29.86
2022-08-11T12:47:14.218Z,31.07
2022-08-11T12:48:58.447Z,30.83
2022-08-11T12:49:12.868Z,30.32
2022-08-11T12:50:21.748Z,30.13
2022-08-11T12:51:12.808Z,31.02
2022-08-11T12:52:15.605Z,31.03
2022-08-11T12:53:11.780Z,30.50
2022-08-11T12:54:11.889Z,31.89
2022-08-11T12:55:13.762Z,31.89
2022-08-11T12:56:11.831Z,31.09
2022-08-11T12:57:11.729Z,31.72
2022-08-11T12:58:13.909Z,31.62
2022-08-11T12:59:11.723Z,30.75
2022-08-11T13:00:12.847Z,30.46